sensor_id;sensor_type;location;lat;lon;timestamp;pressure;altitude;pressure_sealevel;temperature;humidity
64292;BME280;50628;51.008;13.658;2023-05-09T00:01:52;100466.94;;;8.01;100.00
64292;BME280;50628;51.008;13.658;2023-05-09T00:06:55;100472.44;;;7.81;100.00
64292;BME280;50628;51.008;13.658;2023-05-09T00:11:57;100465.25;;;7.86;100.00
64292;BME280;50628;51.008;13.658;2023-05-09T00:16:59;100460.66;;;7.75;100.00
64292;BME280;50628;51.008;13.658;2023-05-09T00:22:02;100464.25;;;7.89;100.00
64292;BME280;50628;51.008;13.658;2023-05-09T00:27:04;100452.19;;;7.57;100.00
64292;BME280;50628;51.008;13.658;2023-05-09T00:32:06;100448.31;;;7.65;100.00
64292;BME280;50628;51.008;13.658;2023-05-09T00:37:09;100447.88;;;8.02;100.00
64292;BME280;50628;51.008;13.658;2023-05-09T00:42:11;100447.53;;;8.23;100.00
64292;BME280;50628;51.008;13.658;2023-05-09T00:47:13;100433.19;;;8.46;100.00
64292;BME280;50628;51.008;13.658;2023-05-09T00:52:16;100431.63;;;8.43;100.00
64292;BME280;50628;51.008;13.658;2023-05-09T00:57:22;100435.72;;;8.48;100.00
64292;BME280;50628;51.008;13.658;2023-05-09T01:02:24;100430.69;;;8.59;100.00
64292;BME280;50628;51.008;13.658;2023-05-09T01:07:32;100428.81;;;8.90;100.00
64292;BME280;50628;51.008;13.658;2023-05-09T01:12:45;100426.25;;;8.61;100.00
64292;BME280;50628;51.008;13.658;2023-05-09T01:17:54;100411.31;;;8.36;100.00
64292;BME280;50628;51.008;13.658;2023-05-09T01:23:12;100409.66;;;8.63;100.00
64292;BME280;50628;51.008;13.658;2023-05-09T01:28:33;100402.41;;;8.69;100.00
64292;BME280;50628;51.008;13.658;2023-05-09T01:33:39;100396.47;;;8.81;100.00
64292;BME280;50628;51.008;13.658;2023-05-09T01:38:43;100384.34;;;8.67;100.00
64292;BME280;50628;51.008;13.658;2023-05-09T01:43:47;100388.16;;;8.61;100.00
64292;BME280;50628;51.008;13.658;2023-05-09T01:48:53;100390.47;;;8.37;100.00
64292;BME280;50628;51.008;13.658;2023-05-09T01:53:55;100394.81;;;8.08;100.00
64292;BME280;50628;51.008;13.658;2023-05-09T01:59:01;100394.97;;;7.76;100.00
64292;BME280;50628;51.008;13.658;2023-05-09T02:04:04;100390.50;;;7.78;100.00
64292;BME280;50628;51.008;13.658;2023-05-09T02:09:06;100388.66;;;7.66;100.00
64292;BME280;50628;51.008;13.658;2023-05-09T02:14:09;100384.31;;;7.81;100.00
64292;BME280;50628;51.008;13.658;2023-05-09T02:19:12;100376.16;;;7.73;100.00
64292;BME280;50628;51.008;13.658;2023-05-09T02:24:14;100375.34;;;7.42;100.00
64292;BME280;50628;51.008;13.658;2023-05-09T02:29:17;100381.47;;;7.25;100.00
64292;BME280;50628;51.008;13.658;2023-05-09T02:34:23;100374.72;;;7.23;100.00
64292;BME280;50628;51.008;13.658;2023-05-09T02:39:26;100376.13;;;6.98;100.00
64292;BME280;50628;51.008;13.658;2023-05-09T02:44:28;100371.69;;;6.84;100.00
64292;BME280;50628;51.008;13.658;2023-05-09T02:49:31;100385.22;;;6.74;100.00
64292;BME280;50628;51.008;13.658;2023-05-09T02:54:36;100377.34;;;6.43;100.00
64292;BME280;50628;51.008;13.658;2023-05-09T02:59:38;100382.25;;;6.32;100.00
64292;BME280;50628;51.008;13.658;2023-05-09T03:04:41;100379.94;;;6.43;100.00
64292;BME280;50628;51.008;13.658;2023-05-09T03:09:43;100376.19;;;6.33;100.00
64292;BME280;50628;51.008;13.658;2023-05-09T03:14:46;100375.66;;;6.26;100.00
64292;BME280;50628;51.008;13.658;2023-05-09T03:19:49;100377.38;;;6.10;100.00
64292;BME280;50628;51.008;13.658;2023-05-09T03:24:51;100375.19;;;6.02;100.00
64292;BME280;50628;51.008;13.658;2023-05-09T03:29:53;100373.84;;;5.95;100.00
64292;BME280;50628;51.008;13.658;2023-05-09T03:34:57;100372.63;;;5.68;100.00
64292;BME280;50628;51.008;13.658;2023-05-09T03:40:00;100369.88;;;5.71;100.00
64292;BME280;50628;51.008;13.658;2023-05-09T03:45:08;100358.88;;;5.50;100.00
64292;BME280;50628;51.008;13.658;2023-05-09T03:50:11;100361.75;;;5.43;100.00
64292;BME280;50628;51.008;13.658;2023-05-09T03:55:14;100358.19;;;5.29;100.00
64292;BME280;50628;51.008;13.658;2023-05-09T04:00:17;100358.75;;;5.16;100.00
64292;BME280;50628;51.008;13.658;2023-05-09T04:05:28;100361.34;;;5.16;100.00
64292;BME280;50628;51.008;13.658;2023-05-09T04:10:33;100360.66;;;5.13;100.00
64292;BME280;50628;51.008;13.658;2023-05-09T04:15:37;100355.66;;;5.10;100.00
64292;BME280;50628;51.008;13.658;2023-05-09T04:20:41;100358.06;;;5.32;100.00
64292;BME280;50628;51.008;13.658;2023-05-09T04:25:44;100356.50;;;5.28;100.00
64292;BME280;50628;51.008;13.658;2023-05-09T04:30:46;100353.78;;;5.31;100.00
64292;BME280;50628;51.008;13.658;2023-05-09T04:35:50;100346.03;;;5.48;100.00
64292;BME280;50628;51.008;13.658;2023-05-09T04:40:52;100341.84;;;5.63;100.00
64292;BME280;50628;51.008;13.658;2023-05-09T04:45:54;100332.50;;;5.78;100.00
64292;BME280;50628;51.008;13.658;2023-05-09T04:50:58;100338.34;;;6.15;100.00
64292;BME280;50628;51.008;13.658;2023-05-09T04:56:00;100335.91;;;6.61;100.00
64292;BME280;50628;51.008;13.658;2023-05-09T05:01:03;100326.78;;;6.85;100.00
64292;BME280;50628;51.008;13.658;2023-05-09T05:06:07;100315.00;;;6.96;100.00
64292;BME280;50628;51.008;13.658;2023-05-09T05:11:10;100319.56;;;7.36;100.00
64292;BME280;50628;51.008;13.658;2023-05-09T05:16:13;100311.31;;;7.74;100.00
64292;BME280;50628;51.008;13.658;2023-05-09T05:21:17;100301.16;;;8.56;100.00
64292;BME280;50628;51.008;13.658;2023-05-09T05:26:19;100305.03;;;8.90;100.00
64292;BME280;50628;51.008;13.658;2023-05-09T05:31:22;100309.25;;;9.18;100.00
64292;BME280;50628;51.008;13.658;2023-05-09T05:36:25;100305.94;;;9.29;100.00
64292;BME280;50628;51.008;13.658;2023-05-09T05:41:27;100300.47;;;9.59;100.00
64292;BME280;50628;51.008;13.658;2023-05-09T05:46:29;100297.44;;;9.91;97.57
64292;BME280;50628;51.008;13.658;2023-05-09T05:51:33;100298.03;;;10.07;94.67
64292;BME280;50628;51.008;13.658;2023-05-09T05:56:37;100279.59;;;10.23;93.73
64292;BME280;50628;51.008;13.658;2023-05-09T06:01:39;100284.44;;;10.40;91.42
64292;BME280;50628;51.008;13.658;2023-05-09T06:06:42;100272.88;;;10.45;88.01
64292;BME280;50628;51.008;13.658;2023-05-09T06:11:44;100266.72;;;10.58;87.89
64292;BME280;50628;51.008;13.658;2023-05-09T06:16:46;100262.63;;;10.78;86.00
64292;BME280;50628;51.008;13.658;2023-05-09T06:21:50;100274.66;;;10.92;85.46
64292;BME280;50628;51.008;13.658;2023-05-09T06:26:51;100253.47;;;10.97;83.06
64292;BME280;50628;51.008;13.658;2023-05-09T06:31:53;100259.28;;;11.00;81.41
64292;BME280;50628;51.008;13.658;2023-05-09T06:36:57;100256.03;;;11.21;81.01
64292;BME280;50628;51.008;13.658;2023-05-09T06:41:58;100244.34;;;11.38;79.59
64292;BME280;50628;51.008;13.658;2023-05-09T06:47:05;100230.75;;;11.57;79.49
64292;BME280;50628;51.008;13.658;2023-05-09T06:52:08;100227.66;;;11.63;77.45
64292;BME280;50628;51.008;13.658;2023-05-09T06:57:12;100224.72;;;11.90;76.37
64292;BME280;50628;51.008;13.658;2023-05-09T07:02:14;100218.66;;;11.89;73.79
64292;BME280;50628;51.008;13.658;2023-05-09T07:07:17;100210.00;;;12.00;74.75
64292;BME280;50628;51.008;13.658;2023-05-09T07:12:19;100193.34;;;12.12;76.04
64292;BME280;50628;51.008;13.658;2023-05-09T07:17:21;100193.94;;;12.16;73.98
64292;BME280;50628;51.008;13.658;2023-05-09T07:22:25;100195.44;;;12.30;74.17
64292;BME280;50628;51.008;13.658;2023-05-09T07:27:27;100186.59;;;12.10;74.02
64292;BME280;50628;51.008;13.658;2023-05-09T07:32:28;100186.00;;;12.06;73.78
64292;BME280;50628;51.008;13.658;2023-05-09T07:37:32;100185.78;;;12.42;73.35
64292;BME280;50628;51.008;13.658;2023-05-09T07:42:34;100174.59;;;12.19;72.11
64292;BME280;50628;51.008;13.658;2023-05-09T07:47:36;100173.16;;;12.58;72.63
64292;BME280;50628;51.008;13.658;2023-05-09T07:52:39;100171.91;;;12.41;71.81
64292;BME280;50628;51.008;13.658;2023-05-09T07:57:41;100156.66;;;12.78;70.72
64292;BME280;50628;51.008;13.658;2023-05-09T08:02:43;100155.56;;;12.60;70.08
64292;BME280;50628;51.008;13.658;2023-05-09T08:07:46;100146.88;;;12.60;70.90
64292;BME280;50628;51.008;13.658;2023-05-09T08:12:48;100148.44;;;12.83;68.77
64292;BME280;50628;51.008;13.658;2023-05-09T08:17:51;100129.56;;;12.80;68.50
64292;BME280;50628;51.008;13.658;2023-05-09T08:22:55;100136.97;;;12.95;69.04
64292;BME280;50628;51.008;13.658;2023-05-09T08:27:57;100125.75;;;13.14;67.09
64292;BME280;50628;51.008;13.658;2023-05-09T08:32:58;100117.41;;;13.20;66.81
64292;BME280;50628;51.008;13.658;2023-05-09T08:38:02;100102.34;;;13.34;65.04
64292;BME280;50628;51.008;13.658;2023-05-09T08:43:05;100102.66;;;13.50;62.29
64292;BME280;50628;51.008;13.658;2023-05-09T08:48:08;100090.91;;;13.95;65.10
64292;BME280;50628;51.008;13.658;2023-05-09T08:53:12;100086.47;;;13.85;61.33
64292;BME280;50628;51.008;13.658;2023-05-09T08:58:15;100090.47;;;13.80;59.83
64292;BME280;50628;51.008;13.658;2023-05-09T09:03:19;100081.00;;;13.89;59.46
64292;BME280;50628;51.008;13.658;2023-05-09T09:08:22;100078.50;;;14.26;60.66
64292;BME280;50628;51.008;13.658;2023-05-09T09:13:24;100068.16;;;14.44;57.03
64292;BME280;50628;51.008;13.658;2023-05-09T09:18:28;100081.19;;;14.83;58.26
64292;BME280;50628;51.008;13.658;2023-05-09T09:23:32;100077.09;;;14.61;57.47
64292;BME280;50628;51.008;13.658;2023-05-09T09:28:34;100072.09;;;14.87;56.46
64292;BME280;50628;51.008;13.658;2023-05-09T09:33:36;100074.47;;;14.61;56.48
64292;BME280;50628;51.008;13.658;2023-05-09T09:38:40;100064.41;;;14.66;55.43
64292;BME280;50628;51.008;13.658;2023-05-09T09:43:44;100067.34;;;15.00;54.71
64292;BME280;50628;51.008;13.658;2023-05-09T09:48:46;100055.66;;;15.22;54.31
64292;BME280;50628;51.008;13.658;2023-05-09T09:53:53;100052.94;;;15.59;52.94
64292;BME280;50628;51.008;13.658;2023-05-09T09:59:07;100055.25;;;15.45;51.96
64292;BME280;50628;51.008;13.658;2023-05-09T10:04:14;100049.44;;;15.87;53.15
64292;BME280;50628;51.008;13.658;2023-05-09T10:09:17;100048.72;;;15.49;49.97
64292;BME280;50628;51.008;13.658;2023-05-09T10:14:20;100045.03;;;15.69;51.80
64292;BME280;50628;51.008;13.658;2023-05-09T10:19:24;100039.28;;;15.56;49.51
64292;BME280;50628;51.008;13.658;2023-05-09T10:24:33;100027.59;;;15.68;50.74
64292;BME280;50628;51.008;13.658;2023-05-09T10:29:37;100032.63;;;15.97;51.88
64292;BME280;50628;51.008;13.658;2023-05-09T10:34:41;100003.81;;;16.23;50.26
64292;BME280;50628;51.008;13.658;2023-05-09T10:39:47;100018.25;;;16.46;49.63
64292;BME280;50628;51.008;13.658;2023-05-09T10:44:52;100017.47;;;16.53;49.04
64292;BME280;50628;51.008;13.658;2023-05-09T10:49:55;100006.59;;;16.48;47.99
64292;BME280;50628;51.008;13.658;2023-05-09T10:54:59;99985.34;;;17.02;46.79
64292;BME280;50628;51.008;13.658;2023-05-09T11:00:01;99982.63;;;17.28;46.72
64292;BME280;50628;51.008;13.658;2023-05-09T11:05:23;99961.16;;;17.82;45.20
64292;BME280;50628;51.008;13.658;2023-05-09T11:10:40;99962.81;;;17.83;42.40
64292;BME280;50628;51.008;13.658;2023-05-09T11:15:49;99952.03;;;18.33;42.09
64292;BME280;50628;51.008;13.658;2023-05-09T11:20:52;99942.53;;;18.08;42.55
64292;BME280;50628;51.008;13.658;2023-05-09T11:26:04;99938.88;;;18.25;42.53
64292;BME280;50628;51.008;13.658;2023-05-09T11:31:10;99930.09;;;18.41;40.78
64292;BME280;50628;51.008;13.658;2023-05-09T11:36:19;99917.03;;;18.56;39.41
64292;BME280;50628;51.008;13.658;2023-05-09T11:41:28;99908.03;;;19.36;38.45
64292;BME280;50628;51.008;13.658;2023-05-09T11:46:30;99903.97;;;18.71;37.73
64292;BME280;50628;51.008;13.658;2023-05-09T11:51:35;99899.00;;;19.53;37.78
64292;BME280;50628;51.008;13.658;2023-05-09T11:56:39;99896.34;;;19.30;36.21
64292;BME280;50628;51.008;13.658;2023-05-09T12:01:42;99881.91;;;19.64;36.15
64292;BME280;50628;51.008;13.658;2023-05-09T12:06:46;99869.75;;;19.55;35.61
64292;BME280;50628;51.008;13.658;2023-05-09T12:11:49;99868.94;;;19.77;35.99
64292;BME280;50628;51.008;13.658;2023-05-09T12:16:52;99864.09;;;19.96;34.54
64292;BME280;50628;51.008;13.658;2023-05-09T12:21:54;99845.72;;;20.02;35.67
64292;BME280;50628;51.008;13.658;2023-05-09T12:26:58;99836.31;;;20.29;35.80
64292;BME280;50628;51.008;13.658;2023-05-09T12:32:00;99847.00;;;19.92;36.81
64292;BME280;50628;51.008;13.658;2023-05-09T12:37:02;99836.69;;;19.82;33.88
64292;BME280;50628;51.008;13.658;2023-05-09T12:42:11;99832.72;;;20.52;34.00
64292;BME280;50628;51.008;13.658;2023-05-09T12:47:13;99825.56;;;20.82;33.77
64292;BME280;50628;51.008;13.658;2023-05-09T12:52:16;99821.25;;;20.81;33.25
64292;BME280;50628;51.008;13.658;2023-05-09T12:57:22;99819.19;;;20.98;30.38
64292;BME280;50628;51.008;13.658;2023-05-09T13:02:24;99804.03;;;21.98;31.26
64292;BME280;50628;51.008;13.658;2023-05-09T13:07:26;99791.84;;;21.69;33.06
64292;BME280;50628;51.008;13.658;2023-05-09T13:12:30;99791.19;;;21.60;32.77
64292;BME280;50628;51.008;13.658;2023-05-09T13:17:31;99794.38;;;21.49;32.61
64292;BME280;50628;51.008;13.658;2023-05-09T13:22:33;99773.63;;;21.94;33.20
64292;BME280;50628;51.008;13.658;2023-05-09T13:27:37;99765.34;;;21.69;31.81
64292;BME280;50628;51.008;13.658;2023-05-09T13:32:39;99750.72;;;21.73;30.82
64292;BME280;50628;51.008;13.658;2023-05-09T13:37:41;99745.72;;;21.56;31.08
64292;BME280;50628;51.008;13.658;2023-05-09T13:42:44;99729.00;;;21.91;32.25
64292;BME280;50628;51.008;13.658;2023-05-09T13:47:48;99715.50;;;22.34;32.01
64292;BME280;50628;51.008;13.658;2023-05-09T13:52:50;99716.91;;;21.81;32.60
64292;BME280;50628;51.008;13.658;2023-05-09T13:57:53;99707.56;;;20.88;31.32
64292;BME280;50628;51.008;13.658;2023-05-09T14:02:55;99692.13;;;21.54;31.58
64292;BME280;50628;51.008;13.658;2023-05-09T14:07:57;99682.28;;;22.84;31.92
64292;BME280;50628;51.008;13.658;2023-05-09T14:13:00;99677.53;;;22.27;32.77
64292;BME280;50628;51.008;13.658;2023-05-09T14:18:02;99669.22;;;22.63;32.42
64292;BME280;50628;51.008;13.658;2023-05-09T14:23:04;99660.44;;;21.74;33.08
64292;BME280;50628;51.008;13.658;2023-05-09T14:28:07;99652.63;;;21.53;33.11
64292;BME280;50628;51.008;13.658;2023-05-09T14:33:09;99660.56;;;22.08;33.76
64292;BME280;50628;51.008;13.658;2023-05-09T14:38:11;99652.66;;;22.34;33.66
64292;BME280;50628;51.008;13.658;2023-05-09T14:43:14;99641.44;;;22.85;33.38
64292;BME280;50628;51.008;13.658;2023-05-09T14:48:16;99635.94;;;22.27;33.80
64292;BME280;50628;51.008;13.658;2023-05-09T14:53:18;99626.34;;;22.26;33.83
64292;BME280;50628;51.008;13.658;2023-05-09T14:58:22;99625.25;;;22.07;33.96
64292;BME280;50628;51.008;13.658;2023-05-09T15:03:23;99623.22;;;21.41;34.45
64292;BME280;50628;51.008;13.658;2023-05-09T15:08:25;99619.50;;;21.83;34.46
64292;BME280;50628;51.008;13.658;2023-05-09T15:13:29;99615.25;;;21.89;33.95
64292;BME280;50628;51.008;13.658;2023-05-09T15:18:31;99618.16;;;21.39;35.57
64292;BME280;50628;51.008;13.658;2023-05-09T15:23:33;99612.53;;;21.63;35.26
64292;BME280;50628;51.008;13.658;2023-05-09T15:28:36;99605.97;;;22.33;35.77
64292;BME280;50628;51.008;13.658;2023-05-09T15:33:38;99594.59;;;21.58;36.53
64292;BME280;50628;51.008;13.658;2023-05-09T15:38:40;99600.41;;;21.95;35.40
64292;BME280;50628;51.008;13.658;2023-05-09T15:43:49;99581.78;;;21.27;36.72
64292;BME280;50628;51.008;13.658;2023-05-09T15:48:50;99590.69;;;21.47;36.16
64292;BME280;50628;51.008;13.658;2023-05-09T15:53:52;99575.00;;;20.76;37.70
64292;BME280;50628;51.008;13.658;2023-05-09T15:58:55;99578.72;;;20.04;39.03
64292;BME280;50628;51.008;13.658;2023-05-09T16:03:58;99576.94;;;19.68;40.14
64292;BME280;50628;51.008;13.658;2023-05-09T16:09:00;99564.78;;;19.74;40.06
64292;BME280;50628;51.008;13.658;2023-05-09T16:14:05;99567.06;;;19.62;41.07
64292;BME280;50628;51.008;13.658;2023-05-09T16:19:08;99556.38;;;19.49;41.67
64292;BME280;50628;51.008;13.658;2023-05-09T16:24:10;99548.59;;;19.26;42.42
64292;BME280;50628;51.008;13.658;2023-05-09T16:29:13;99546.84;;;19.33;41.75
64292;BME280;50628;51.008;13.658;2023-05-09T16:34:15;99551.66;;;19.29;42.38
64292;BME280;50628;51.008;13.658;2023-05-09T16:39:17;99539.53;;;19.35;43.43
64292;BME280;50628;51.008;13.658;2023-05-09T16:44:20;99530.59;;;18.99;43.27
64292;BME280;50628;51.008;13.658;2023-05-09T16:49:22;99527.59;;;18.73;42.64
64292;BME280;50628;51.008;13.658;2023-05-09T16:54:24;99520.13;;;18.62;42.43
64292;BME280;50628;51.008;13.658;2023-05-09T16:59:27;99513.47;;;18.51;42.63
64292;BME280;50628;51.008;13.658;2023-05-09T17:04:30;99516.56;;;18.40;43.61
64292;BME280;50628;51.008;13.658;2023-05-09T17:09:31;99509.44;;;18.25;43.54
64292;BME280;50628;51.008;13.658;2023-05-09T17:14:35;99511.16;;;18.18;43.69
64292;BME280;50628;51.008;13.658;2023-05-09T17:19:36;99489.28;;;18.17;43.65
64292;BME280;50628;51.008;13.658;2023-05-09T17:24:44;99498.34;;;18.15;43.76
64292;BME280;50628;51.008;13.658;2023-05-09T17:29:47;99492.00;;;18.24;44.67
64292;BME280;50628;51.008;13.658;2023-05-09T17:34:49;99493.84;;;18.01;45.08
64292;BME280;50628;51.008;13.658;2023-05-09T17:39:53;99490.69;;;18.05;45.35
64292;BME280;50628;51.008;13.658;2023-05-09T17:44:56;99482.59;;;17.92;45.96
64292;BME280;50628;51.008;13.658;2023-05-09T17:49:58;99482.31;;;17.87;45.93
64292;BME280;50628;51.008;13.658;2023-05-09T17:55:02;99487.00;;;17.68;46.41
64292;BME280;50628;51.008;13.658;2023-05-09T18:00:13;99478.59;;;17.50;46.71
64292;BME280;50628;51.008;13.658;2023-05-09T18:05:15;99480.84;;;17.30;47.22
64292;BME280;50628;51.008;13.658;2023-05-09T18:10:20;99469.56;;;17.21;47.85
64292;BME280;50628;51.008;13.658;2023-05-09T18:15:32;99472.53;;;17.18;48.20
64292;BME280;50628;51.008;13.658;2023-05-09T18:20:58;99461.19;;;17.18;48.39
64292;BME280;50628;51.008;13.658;2023-05-09T18:26:03;99460.78;;;16.98;48.40
64292;BME280;50628;51.008;13.658;2023-05-09T18:31:12;99468.56;;;16.91;48.66
64292;BME280;50628;51.008;13.658;2023-05-09T18:36:14;99464.16;;;16.83;49.31
64292;BME280;50628;51.008;13.658;2023-05-09T18:41:21;99466.09;;;16.90;48.90
64292;BME280;50628;51.008;13.658;2023-05-09T18:46:29;99463.00;;;16.78;49.63
64292;BME280;50628;51.008;13.658;2023-05-09T18:51:32;99465.41;;;16.48;49.62
64292;BME280;50628;51.008;13.658;2023-05-09T19:02:17;99455.59;;;16.26;50.35
64292;BME280;50628;51.008;13.658;2023-05-09T19:07:20;99451.84;;;16.12;51.38
64292;BME280;50628;51.008;13.658;2023-05-09T19:12:22;99442.84;;;16.06;51.64
64292;BME280;50628;51.008;13.658;2023-05-09T19:17:31;99441.03;;;15.98;52.02
64292;BME280;50628;51.008;13.658;2023-05-09T19:22:45;99438.75;;;15.95;52.41
64292;BME280;50628;51.008;13.658;2023-05-09T19:27:51;99436.31;;;15.77;53.55
64292;BME280;50628;51.008;13.658;2023-05-09T19:32:54;99443.94;;;15.46;54.97
64292;BME280;50628;51.008;13.658;2023-05-09T19:37:57;99436.91;;;15.47;55.23
64292;BME280;50628;51.008;13.658;2023-05-09T19:43:10;99431.47;;;15.24;55.95
64292;BME280;50628;51.008;13.658;2023-05-09T19:48:16;99431.13;;;15.19;56.67
64292;BME280;50628;51.008;13.658;2023-05-09T19:53:18;99421.78;;;15.16;56.93
64292;BME280;50628;51.008;13.658;2023-05-09T19:58:23;99419.44;;;14.97;57.81
64292;BME280;50628;51.008;13.658;2023-05-09T20:03:28;99424.53;;;14.98;58.04
64292;BME280;50628;51.008;13.658;2023-05-09T20:08:33;99423.53;;;14.91;58.99
64292;BME280;50628;51.008;13.658;2023-05-09T20:13:37;99415.66;;;14.91;59.24
64292;BME280;50628;51.008;13.658;2023-05-09T20:18:40;99404.66;;;14.79;59.72
64292;BME280;50628;51.008;13.658;2023-05-09T20:23:43;99402.34;;;14.76;60.00
64292;BME280;50628;51.008;13.658;2023-05-09T20:28:45;99401.19;;;14.70;60.52
64292;BME280;50628;51.008;13.658;2023-05-09T20:33:48;99385.59;;;14.61;61.05
64292;BME280;50628;51.008;13.658;2023-05-09T20:38:50;99388.31;;;14.51;61.95
64292;BME280;50628;51.008;13.658;2023-05-09T20:43:52;99387.41;;;14.60;61.84
64292;BME280;50628;51.008;13.658;2023-05-09T20:48:56;99378.81;;;14.50;62.08
64292;BME280;50628;51.008;13.658;2023-05-09T20:53:58;99378.31;;;14.46;62.68
64292;BME280;50628;51.008;13.658;2023-05-09T20:59:00;99372.44;;;14.53;62.55
64292;BME280;50628;51.008;13.658;2023-05-09T21:04:04;99361.97;;;14.53;62.89
64292;BME280;50628;51.008;13.658;2023-05-09T21:09:07;99359.34;;;14.44;63.29
64292;BME280;50628;51.008;13.658;2023-05-09T21:14:09;99347.06;;;14.45;63.55
64292;BME280;50628;51.008;13.658;2023-05-09T21:19:13;99346.91;;;14.46;63.34
64292;BME280;50628;51.008;13.658;2023-05-09T21:24:14;99337.50;;;14.36;63.80
64292;BME280;50628;51.008;13.658;2023-05-09T21:29:16;99334.78;;;14.45;63.94
64292;BME280;50628;51.008;13.658;2023-05-09T21:34:19;99331.25;;;14.20;64.74
64292;BME280;50628;51.008;13.658;2023-05-09T21:39:21;99334.41;;;14.32;65.09
64292;BME280;50628;51.008;13.658;2023-05-09T21:44:23;99334.91;;;14.36;64.13
64292;BME280;50628;51.008;13.658;2023-05-09T21:49:27;99335.06;;;14.34;64.26
64292;BME280;50628;51.008;13.658;2023-05-09T21:54:29;99330.31;;;14.29;64.67
64292;BME280;50628;51.008;13.658;2023-05-09T21:59:31;99312.31;;;14.26;65.10
64292;BME280;50628;51.008;13.658;2023-05-09T22:04:34;99312.00;;;14.03;65.99
64292;BME280;50628;51.008;13.658;2023-05-09T22:09:36;99317.78;;;14.07;66.10
64292;BME280;50628;51.008;13.658;2023-05-09T22:14:38;99306.50;;;14.06;66.57
64292;BME280;50628;51.008;13.658;2023-05-09T22:19:42;99301.25;;;14.06;66.82
64292;BME280;50628;51.008;13.658;2023-05-09T22:24:44;99306.63;;;14.05;67.32
64292;BME280;50628;51.008;13.658;2023-05-09T22:29:45;99301.03;;;13.92;67.70
64292;BME280;50628;51.008;13.658;2023-05-09T22:34:49;99291.34;;;13.84;68.38
64292;BME280;50628;51.008;13.658;2023-05-09T22:39:51;99301.81;;;13.84;68.64
64292;BME280;50628;51.008;13.658;2023-05-09T22:44:52;99284.88;;;13.70;69.51
64292;BME280;50628;51.008;13.658;2023-05-09T22:49:56;99276.00;;;13.63;70.10
64292;BME280;50628;51.008;13.658;2023-05-09T22:54:57;99266.41;;;13.72;70.09
64292;BME280;50628;51.008;13.658;2023-05-09T22:59:59;99267.44;;;13.53;71.35
64292;BME280;50628;51.008;13.658;2023-05-09T23:05:03;99262.22;;;13.53;71.13
64292;BME280;50628;51.008;13.658;2023-05-09T23:10:06;99253.56;;;13.52;71.41
64292;BME280;50628;51.008;13.658;2023-05-09T23:15:09;99257.94;;;13.44;71.90
64292;BME280;50628;51.008;13.658;2023-05-09T23:20:12;99248.97;;;13.46;71.77
64292;BME280;50628;51.008;13.658;2023-05-09T23:25:14;99246.59;;;13.35;72.84
64292;BME280;50628;51.008;13.658;2023-05-09T23:30:16;99239.72;;;13.34;73.24
64292;BME280;50628;51.008;13.658;2023-05-09T23:35:19;99242.03;;;13.19;73.73
64292;BME280;50628;51.008;13.658;2023-05-09T23:40:21;99228.34;;;13.25;74.09
64292;BME280;50628;51.008;13.658;2023-05-09T23:45:24;99236.59;;;13.12;74.70
64292;BME280;50628;51.008;13.658;2023-05-09T23:50:27;99231.81;;;13.08;74.94
64292;BME280;50628;51.008;13.658;2023-05-09T23:55:29;99230.72;;;13.10;74.49
